Time;durP1;ratioP1;P1;durP2;ratioP2;P2;SDS_P1;SDS_P2;PMS_P1;PMS_P2;Temp;Humidity;BMP_temperature;BMP_pressure;BME280_temperature;BME280_humidity;BME280_pressure;Samples;Min_cycle;Max_cycle;Signal;HPM_P1;HPM_P2
2022/03/29 04:06:38;;;;;;;14.80;10.97;;;5.10;99.90;;;;;;5042378;23;20238;-79
2022/03/29 04:09:07;;;;;;;12.60;10.13;;;5.10;99.90;;;;;;4993043;28;20318;-78
2022/03/29 04:11:35;;;;;;;14.77;11.00;;;5.10;99.90;;;;;;5000585;28;20711;-79
2022/03/29 04:14:04;;;;;;;16.60;11.27;;;5.00;99.90;;;;;;5007464;28;20234;-80
2022/03/29 04:16:33;;;;;;;17.50;11.17;;;5.00;99.90;;;;;;5007746;28;20241;-77
2022/03/29 04:19:01;;;;;;;18.43;11.43;;;5.00;99.90;;;;;;5003260;28;20282;-74
2022/03/29 04:21:30;;;;;;;16.00;11.10;;;5.00;99.90;;;;;;4998529;28;20206;-77
2022/03/29 04:24:02;;;;;;;17.57;11.20;;;4.90;99.90;;;;;;4994840;28;20242;-78
2022/03/29 04:26:31;;;;;;;14.83;11.10;;;4.90;99.90;;;;;;4996740;28;20318;-76
2022/03/29 04:28:59;;;;;;;15.80;11.13;;;4.90;99.90;;;;;;4996908;28;20296;-76
2022/03/29 04:31:27;;;;;;;17.10;11.43;;;4.90;99.90;;;;;;4997074;28;20210;-76
2022/03/29 04:33:55;;;;;;;13.77;10.57;;;5.00;99.90;;;;;;4999039;28;20217;-75
2022/03/29 04:36:24;;;;;;;13.87;10.93;;;5.00;99.90;;;;;;4999219;28;20213;-78
2022/03/29 04:38:52;;;;;;;17.17;11.57;;;5.00;99.90;;;;;;4999099;28;20214;-79
2022/03/29 04:41:22;;;;;;;19.43;11.90;;;5.00;99.90;;;;;;4999413;28;20210;-78
2022/03/29 04:43:55;;;;;;;15.10;11.10;;;5.00;99.90;;;;;;4999476;28;20204;-76
2022/03/29 04:46:23;;;;;;;18.47;11.53;;;5.00;99.90;;;;;;4998792;28;20233;-76
2022/03/29 04:48:52;;;;;;;16.03;11.03;;;5.00;99.90;;;;;;4999312;28;20249;-76
2022/03/29 04:51:21;;;;;;;15.83;11.50;;;5.00;99.90;;;;;;4999656;28;20233;-77
2022/03/29 04:53:49;;;;;;;16.80;11.57;;;5.00;99.90;;;;;;4998972;28;20310;-76
2022/03/29 04:56:17;;;;;;;14.67;11.53;;;5.00;99.90;;;;;;4999102;28;20595;-77
2022/03/29 04:58:47;;;;;;;17.77;11.37;;;5.00;99.90;;;;;;4996015;28;20289;-76
2022/03/29 05:01:15;;;;;;;16.30;11.50;;;5.00;99.90;;;;;;4995599;28;20209;-78
2022/03/29 05:03:44;;;;;;;18.50;11.90;;;5.00;99.90;;;;;;4996125;28;20237;-76
2022/03/29 05:06:12;;;;;;;17.67;11.23;;;5.10;99.90;;;;;;4996159;28;20304;-77
2022/03/29 05:08:40;;;;;;;18.47;11.73;;;5.10;99.90;;;;;;4996718;28;20241;-77
2022/03/29 05:11:09;;;;;;;16.73;11.40;;;5.10;99.90;;;;;;4996943;28;20301;-78
2022/03/29 05:13:37;;;;;;;16.20;11.23;;;5.20;99.90;;;;;;4996363;28;20233;-77
2022/03/29 05:16:06;;;;;;;17.13;10.93;;;5.20;99.90;;;;;;4996725;28;20297;-77
2022/03/29 05:18:35;;;;;;;15.00;11.50;;;5.30;99.90;;;;;;4997121;28;20265;-79
2022/03/29 05:21:03;;;;;;;19.60;11.40;;;5.40;99.90;;;;;;4996740;28;20564;-78
2022/03/29 05:23:31;;;;;;;13.80;10.43;;;5.30;99.90;;;;;;4996331;28;20232;-78
2022/03/29 05:26:03;;;;;;;15.20;10.87;;;5.30;99.90;;;;;;4995878;28;20233;-78
2022/03/29 05:28:31;;;;;;;17.60;11.03;;;5.30;99.90;;;;;;4995848;28;20246;-76
2022/03/29 05:30:59;;;;;;;17.20;11.83;;;5.40;99.90;;;;;;4996174;28;20244;-77
2022/03/29 05:33:29;;;;;;;14.97;10.73;;;5.40;99.90;;;;;;4997864;28;20203;-76
2022/03/29 05:35:58;;;;;;;15.43;11.10;;;5.50;99.90;;;;;;4999670;28;20214;-77
2022/03/29 05:38:29;;;;;;;15.50;10.40;;;5.60;99.90;;;;;;4999426;28;20359;-77
2022/03/29 05:40:57;;;;;;;15.27;10.80;;;5.60;99.90;;;;;;4999070;28;20193;-77
2022/03/29 05:43:27;;;;;;;17.73;11.97;;;5.70;99.90;;;;;;4998704;28;20715;-76
2022/03/29 05:48:56;;;;;;;18.60;11.33;;;5.80;99.90;;;;;;5001212;28;20209;-78
2022/03/29 05:51:25;;;;;;;17.53;11.13;;;5.90;99.90;;;;;;5000338;28;20288;-79
2022/03/29 05:53:54;;;;;;;19.40;12.60;;;6.00;99.90;;;;;;5000307;28;20260;-79
2022/03/29 05:56:22;;;;;;;17.63;11.37;;;6.10;99.90;;;;;;5000700;28;20245;-78
2022/03/29 05:58:51;;;;;;;18.53;11.00;;;6.30;99.90;;;;;;4999021;28;20743;-78
2022/03/29 06:01:20;;;;;;;21.77;11.50;;;6.30;99.90;;;;;;4999106;28;20256;-77
2022/03/29 06:03:50;;;;;;;17.10;11.23;;;6.50;99.90;;;;;;5000119;28;20211;-77
2022/03/29 06:06:19;;;;;;;16.23;11.60;;;6.70;99.90;;;;;;4997905;28;20210;-78
2022/03/29 06:08:47;;;;;;;15.90;10.80;;;6.90;99.50;;;;;;4998190;28;20242;-79
2022/03/29 06:11:16;;;;;;;15.17;10.83;;;6.90;98.30;;;;;;4996087;28;20276;-77
2022/03/29 06:13:45;;;;;;;17.97;11.57;;;7.10;98.70;;;;;;4996083;28;20325;-76
2022/03/29 06:16:13;;;;;;;19.73;11.50;;;7.20;97.70;;;;;;4997176;28;20272;-76
2022/03/29 06:18:41;;;;;;;16.80;11.50;;;7.30;97.40;;;;;;4996782;28;20235;-78
2022/03/29 06:21:10;;;;;;;16.93;11.77;;;7.50;96.80;;;;;;4996146;28;20277;-77
2022/03/29 06:23:39;;;;;;;16.47;10.37;;;7.60;96.00;;;;;;4995863;28;20238;-77
2022/03/29 06:26:08;;;;;;;17.50;11.40;;;7.70;95.60;;;;;;4995645;28;20607;-76
2022/03/29 06:28:36;;;;;;;20.70;11.47;;;7.80;94.90;;;;;;4997537;28;20208;-76
2022/03/29 06:31:04;;;;;;;17.17;11.27;;;7.90;94.30;;;;;;4995904;28;20257;-76
2022/03/29 06:33:32;;;;;;;63.23;45.77;;;8.00;94.30;;;;;;4995637;28;20210;-77
2022/03/29 06:36:01;;;;;;;41.37;30.87;;;8.10;93.60;;;;;;4996308;28;20275;-77
2022/03/29 06:38:31;;;;;;;19.73;12.33;;;8.20;93.30;;;;;;4997297;28;20217;-77
2022/03/29 06:41:00;;;;;;;15.50;11.30;;;8.30;92.70;;;;;;4998051;28;20305;-75
2022/03/29 06:43:28;;;;;;;16.90;10.83;;;8.60;92.40;;;;;;4997505;28;20226;-78
2022/03/29 06:45:56;;;;;;;18.70;11.07;;;8.80;91.70;;;;;;4994357;28;20217;-77
2022/03/29 06:48:25;;;;;;;13.77;10.53;;;9.00;91.40;;;;;;4980770;28;20242;-77
2022/03/29 06:50:53;;;;;;;17.30;11.40;;;9.30;90.70;;;;;;4990115;28;20310;-76
2022/03/29 06:53:22;;;;;;;17.87;10.90;;;9.60;90.20;;;;;;5004503;28;20220;-78
2022/03/29 06:55:51;;;;;;;18.23;11.17;;;10.10;87.80;;;;;;5010889;28;20218;-77
2022/03/29 06:58:21;;;;;;;16.10;10.47;;;10.50;86.30;;;;;;5007523;28;20210;-76
2022/03/29 07:00:50;;;;;;;21.73;11.03;;;11.10;84.00;;;;;;4995657;28;20249;-76
2022/03/29 07:03:20;;;;;;;13.50;10.40;;;11.80;80.30;;;;;;4995233;28;20218;-77
2022/03/29 07:05:48;;;;;;;13.20;10.23;;;12.40;79.00;;;;;;4994617;28;20230;-77
2022/03/29 07:08:20;;;;;;;14.97;10.80;;;12.80;76.50;;;;;;4994558;28;20304;-77
2022/03/29 07:13:40;;;;;;;12.53;10.23;;;13.40;73.70;;;;;;4994884;28;20542;-77
2022/03/29 07:16:09;;;;;;;17.63;9.83;;;13.80;72.20;;;;;;4994827;28;20633;-76
2022/03/29 07:18:37;;;;;;;14.13;10.27;;;14.20;70.60;;;;;;4994812;28;20210;-79
2022/03/29 07:21:05;;;;;;;14.27;10.67;;;14.20;70.70;;;;;;4994909;28;20199;-78
2022/03/29 07:23:33;;;;;;;14.67;10.40;;;14.20;71.20;;;;;;4995813;28;20668;-77
2022/03/29 07:26:06;;;;;;;13.13;10.23;;;14.30;69.60;;;;;;4996259;28;20257;-77
2022/03/29 07:28:34;;;;;;;15.53;10.10;;;14.40;71.60;;;;;;4996660;28;20277;-78
2022/03/29 07:31:02;;;;;;;16.97;10.50;;;14.70;69.80;;;;;;4996067;28;20226;-78
2022/03/29 07:33:31;;;;;;;17.90;10.80;;;14.90;68.80;;;;;;4996019;28;20206;-77
2022/03/29 07:35:59;;;;;;;20.43;11.10;;;15.10;67.80;;;;;;4995736;28;20691;-77
2022/03/29 07:38:27;;;;;;;17.27;11.13;;;15.40;67.10;;;;;;4994941;28;20241;-77
2022/03/29 07:40:55;;;;;;;14.93;10.33;;;15.80;66.90;;;;;;4994256;28;20206;-77
2022/03/29 07:43:25;;;;;;;14.87;10.50;;;16.10;65.10;;;;;;4994684;28;20218;-76
2022/03/29 07:45:53;;;;;;;15.13;10.27;;;16.20;65.30;;;;;;4994085;28;20305;-77
2022/03/29 07:48:22;;;;;;;15.07;10.33;;;16.80;64.60;;;;;;4993756;28;20214;-80
2022/03/29 07:51:14;;;;;;;14.93;10.57;;;17.10;61.30;;;;;;4995507;28;20226;-77
2022/03/29 07:53:42;;;;;;;17.93;10.30;;;17.80;60.80;;;;;;4993139;28;20209;-79
2022/03/29 07:56:10;;;;;;;13.80;10.20;;;18.10;60.70;;;;;;4993049;28;20206;-79
2022/03/29 07:58:40;;;;;;;17.70;11.10;;;18.50;58.10;;;;;;4992906;28;20241;-77
2022/03/29 08:01:10;;;;;;;12.53;10.50;;;19.10;57.40;;;;;;4993503;28;20214;-80
2022/03/29 08:03:38;;;;;;;21.67;10.83;;;19.10;54.80;;;;;;4995661;28;20611;-79
2022/03/29 08:06:07;;;;;;;20.47;11.63;;;19.30;53.40;;;;;;4996852;28;20654;-78
2022/03/29 08:08:36;;;;;;;18.93;11.90;;;19.50;53.60;;;;;;4993073;28;20306;-79
2022/03/29 08:11:04;;;;;;;16.57;11.30;;;19.80;53.00;;;;;;4980091;28;20309;-79
2022/03/29 08:13:33;;;;;;;21.70;10.53;;;19.60;52.40;;;;;;4978795;28;20215;-78
2022/03/29 08:16:03;;;;;;;18.00;11.07;;;19.50;53.40;;;;;;4978022;28;20211;-78
2022/03/29 08:18:34;;;;;;;18.67;11.30;;;19.70;54.00;;;;;;4978394;28;20231;-77
2022/03/29 08:21:03;;;;;;;19.77;11.00;;;19.70;52.60;;;;;;4978003;28;20199;-77
2022/03/29 08:23:31;;;;;;;18.30;10.97;;;19.30;52.10;;;;;;4978361;28;20234;-78
2022/03/29 08:26:00;;;;;;;19.20;11.70;;;19.60;52.40;;;;;;4980515;28;20246;-77
2022/03/29 08:28:28;;;;;;;25.43;11.47;;;19.30;52.10;;;;;;4978287;28;20210;-77
2022/03/29 08:30:56;;;;;;;25.57;11.10;;;19.10;52.90;;;;;;4977643;28;20227;-78
2022/03/29 08:33:26;;;;;;;25.73;11.90;;;19.00;53.10;;;;;;4991771;28;20207;-80
2022/03/29 08:35:54;;;;;;;20.47;11.47;;;19.00;53.20;;;;;;4993587;28;20289;-79
2022/03/29 08:38:24;;;;;;;17.70;11.67;;;19.30;52.80;;;;;;4993664;28;20226;-79
2022/03/29 08:40:57;;;;;;;21.40;11.47;;;19.30;52.80;;;;;;4991584;28;20191;-81
2022/03/29 08:43:27;;;;;;;18.13;11.37;;;19.60;53.70;;;;;;4983639;28;20187;-79
2022/03/29 08:45:57;;;;;;;18.57;11.40;;;19.70;52.60;;;;;;4981828;28;20195;-78
2022/03/29 08:48:29;;;;;;;17.17;11.27;;;19.50;53.40;;;;;;4979953;28;20230;-79
2022/03/29 08:51:00;;;;;;;18.00;11.10;;;20.00;51.80;;;;;;4977402;28;20270;-77
2022/03/29 08:53:49;;;;;;;18.53;11.40;;;20.40;53.30;;;;;;4976506;28;20575;-78
2022/03/29 08:56:18;;;;;;;18.27;11.70;;;21.10;51.60;;;;;;4977195;28;20211;-81
2022/03/29 08:58:49;;;;;;;19.30;11.60;;;22.00;49.70;;;;;;4977099;28;20277;-82
2022/03/29 09:01:21;;;;;;;18.30;11.50;;;22.20;48.20;;;;;;4976867;28;20266;-80
2022/03/29 09:06:58;;;;;;;15.43;12.03;;;22.30;49.00;;;;;;5123576;27;20653;-78
2022/03/29 09:09:29;;;;;;;15.10;11.83;;;22.20;48.20;;;;;;5090691;28;20289;-79
2022/03/29 09:11:59;;;;;;;17.67;12.73;;;22.30;47.20;;;;;;5091341;28;20195;-79
2022/03/29 09:14:29;;;;;;;17.00;12.47;;;22.60;46.80;;;;;;5090712;28;20210;-79
2022/03/29 09:16:58;;;;;;;16.70;11.60;;;22.80;47.90;;;;;;5096418;28;20210;-77
2022/03/29 09:19:26;;;;;;;15.83;11.50;;;22.70;46.50;;;;;;5090221;28;20203;-76
2022/03/29 09:22:02;;;;;;;14.10;11.23;;;22.60;46.00;;;;;;5089844;28;20203;-80
2022/03/29 09:24:33;;;;;;;17.57;11.43;;;23.00;47.60;;;;;;5089905;28;20282;-78
2022/03/29 09:27:02;;;;;;;13.40;11.20;;;23.40;45.30;;;;;;5090318;28;20696;-79
2022/03/29 09:29:31;;;;;;;13.43;11.83;;;23.50;44.60;;;;;;5090064;28;20206;-79
2022/03/29 09:32:05;;;;;;;12.73;11.23;;;24.10;44.90;;;;;;5090407;28;20207;-82
2022/03/29 09:34:36;;;;;;;15.77;11.70;;;24.90;44.20;;;;;;5090380;28;20272;-80
2022/03/29 09:37:06;;;;;;;15.23;11.80;;;25.10;43.40;;;;;;5090203;28;20210;-79
2022/03/29 09:39:37;;;;;;;14.55;11.13;;;25.10;42.70;;;;;;5089727;28;20211;-80
2022/03/29 09:42:09;;;;;;;18.95;11.23;;;25.20;43.20;;;;;;5089480;28;20620;-79
2022/03/29 09:44:41;;;;;;;15.88;11.18;;;25.10;42.30;;;;;;5090033;28;20195;-81
2022/03/29 09:47:12;;;;;;;16.60;11.65;;;24.50;42.70;;;;;;5090225;28;20664;-78
2022/03/29 09:49:55;;;;;;;16.10;11.30;;;23.90;42.90;;;;;;5090024;28;20183;-77
2022/03/29 09:52:27;;;;;;;13.83;11.57;;;23.30;43.20;;;;;;5090196;28;20301;-80
2022/03/29 09:55:07;;;;;;;15.10;12.07;;;22.30;44.70;;;;;;5089803;28;20195;-77
2022/03/29 09:57:36;;;;;;;17.57;12.60;;;21.90;44.70;;;;;;5091544;28;20195;-78
2022/03/29 10:00:07;;;;;;;20.70;11.87;;;21.30;46.30;;;;;;5101198;28;20210;-79
2022/03/29 10:02:38;;;;;;;27.53;13.00;;;21.30;47.30;;;;;;5089645;28;20294;-78
2022/03/29 10:05:06;;;;;;;19.33;12.33;;;21.30;48.20;;;;;;5088313;28;20907;-76
2022/03/29 10:07:44;;;;;;;19.23;12.03;;;21.60;47.10;;;;;;5070707;28;20207;-79
2022/03/29 10:10:13;;;;;;;18.50;13.10;;;22.00;48.00;;;;;;5075665;28;20207;-77
2022/03/29 10:12:42;;;;;;;18.07;12.70;;;22.00;45.40;;;;;;5080221;28;20323;-77
2022/03/29 10:15:30;;;;;;;18.27;12.07;;;22.10;46.50;;;;;;5070501;28;20224;-77
2022/03/29 10:17:59;;;;;;;15.83;12.33;;;22.70;45.10;;;;;;5058057;28;20215;-78
2022/03/29 10:20:28;;;;;;;16.90;12.03;;;23.10;45.40;;;;;;5061877;28;20617;-77
2022/03/29 10:23:00;;;;;;;14.80;12.20;;;23.20;45.30;;;;;;5066141;28;20303;-78
2022/03/29 10:25:31;;;;;;;17.17;12.23;;;23.60;44.40;;;;;;5068960;28;20748;-78
2022/03/29 10:28:01;;;;;;;21.30;12.83;;;23.90;47.10;;;;;;5071639;28;20192;-80
2022/03/29 10:30:35;;;;;;;16.97;12.63;;;24.00;45.10;;;;;;5071478;28;20664;-78
2022/03/29 10:33:18;;;;;;;18.10;12.53;;;24.20;44.80;;;;;;5071026;28;20206;-78
2022/03/29 10:36:08;;;;;;;18.85;12.43;;;24.80;43.70;;;;;;5070745;28;20193;-81
2022/03/29 10:38:57;;;;;;;18.42;12.80;;;24.90;44.50;;;;;;5062439;28;20195;-80
2022/03/29 10:41:49;;;;;;;17.27;12.68;;;25.40;43.40;;;;;;5070206;28;20204;-81
2022/03/29 10:44:22;;;;;;;19.42;13.27;;;25.60;43.80;;;;;;5072741;28;20246;-81
2022/03/29 10:46:51;;;;;;;18.10;12.43;;;25.40;42.90;;;;;;5072068;28;20242;-80
2022/03/29 10:49:22;;;;;;;17.97;12.63;;;24.80;42.80;;;;;;5072163;28;20185;-78
2022/03/29 10:51:51;;;;;;;19.90;13.43;;;23.80;44.00;;;;;;5061751;28;20195;-81
2022/03/29 10:54:33;;;;;;;17.73;13.00;;;23.40;43.70;;;;;;5056851;28;20223;-77
2022/03/29 10:57:06;;;;;;;20.83;12.77;;;23.00;45.00;;;;;;5059361;28;20223;-80
2022/03/29 10:59:39;;;;;;;17.60;13.13;;;22.80;45.10;;;;;;5063903;28;20203;-82
2022/03/29 11:02:09;;;;;;;15.00;12.50;;;22.30;45.60;;;;;;5060428;28;20274;-78
2022/03/29 11:05:01;;;;;;;22.83;12.77;;;22.30;45.30;;;;;;5068223;28;20239;-78
2022/03/29 11:07:30;;;;;;;21.33;12.87;;;21.90;46.10;;;;;;5077728;28;20232;-77
2022/03/29 11:10:11;;;;;;;19.10;12.57;;;21.50;48.10;;;;;;5075597;28;20203;-78
2022/03/29 11:12:46;;;;;;;21.63;12.90;;;21.20;47.20;;;;;;5075722;28;20321;-83
2022/03/29 11:15:48;;;;;;;25.13;13.27;;;20.70;47.60;;;;;;5076487;28;20280;-78
2022/03/29 11:18:37;;;;;;;16.97;12.13;;;20.60;48.00;;;;;;5076373;28;20294;-80
2022/03/29 11:21:06;;;;;;;18.93;12.83;;;20.40;47.70;;;;;;5077226;28;20306;-80
2022/03/29 11:23:36;;;;;;;19.70;12.10;;;20.40;48.20;;;;;;5076826;28;20203;-80
2022/03/29 11:26:12;;;;;;;21.77;12.13;;;19.90;48.00;;;;;;5075556;28;20224;-79
2022/03/29 11:28:49;;;;;;;22.50;12.67;;;20.00;49.20;;;;;;5075502;28;20280;-78
2022/03/29 11:31:18;;;;;;;17.37;12.40;;;20.10;47.70;;;;;;5075870;28;20211;-76
2022/03/29 11:33:49;;;;;;;18.20;12.63;;;20.20;47.50;;;;;;5076299;28;20214;-78
2022/03/29 11:36:18;;;;;;;18.40;12.20;;;20.10;47.60;;;;;;5075153;28;20195;-78
2022/03/29 11:38:48;;;;;;;17.13;12.10;;;20.40;47.20;;;;;;5075422;28;20210;-75
2022/03/29 11:41:28;;;;;;;17.80;12.93;;;20.30;47.20;;;;;;5074437;28;20196;-77
2022/03/29 11:43:58;;;;;;;16.07;11.17;;;20.30;48.10;;;;;;5075179;28;20249;-77
2022/03/29 11:46:44;;;;;;;19.17;11.30;;;20.40;47.20;;;;;;5074820;28;20235;-77
2022/03/29 11:49:13;;;;;;;24.80;10.53;;;20.60;47.50;;;;;;5075187;28;20261;-79
2022/03/29 11:51:41;;;;;;;17.23;8.87;;;20.40;45.20;;;;;;5075861;28;20213;-78
2022/03/29 11:54:10;;;;;;;14.40;8.97;;;20.10;45.00;;;;;;5075573;28;20207;-77
2022/03/29 11:56:39;;;;;;;11.70;7.77;;;20.10;45.90;;;;;;5075277;28;20207;-84
2022/03/29 11:59:16;;;;;;;13.40;8.70;;;20.10;46.10;;;;;;5074698;28;20211;-80
2022/03/29 12:01:45;;;;;;;10.80;7.07;;;20.10;45.00;;;;;;5074143;28;20214;-75
2022/03/29 12:04:14;;;;;;;20.93;8.33;;;19.90;45.10;;;;;;5074249;28;20219;-74
2022/03/29 12:06:52;;;;;;;14.10;8.00;;;19.70;44.60;;;;;;5073984;28;20276;-77
2022/03/29 12:09:24;;;;;;;11.27;7.40;;;19.80;44.00;;;;;;5074852;28;20194;-77
2022/03/29 12:11:59;;;;;;;12.70;7.93;;;19.90;45.40;;;;;;5074592;28;20195;-76
2022/03/29 12:14:27;;;;;;;14.97;7.93;;;20.20;45.80;;;;;;5074938;28;20210;-76
2022/03/29 12:17:03;;;;;;;12.57;8.17;;;20.10;44.90;;;;;;5075165;28;20204;-78
2022/03/29 12:19:33;;;;;;;20.07;9.20;;;20.00;44.70;;;;;;5075800;28;20218;-76
2022/03/29 12:22:04;;;;;;;22.63;9.93;;;19.90;45.80;;;;;;5074669;28;20218;-79
2022/03/29 12:24:33;;;;;;;29.17;8.97;;;19.90;47.40;;;;;;5075789;28;20207;-75
2022/03/29 12:27:06;;;;;;;25.43;8.17;;;19.90;45.50;;;;;;5077563;28;20227;-78
2022/03/29 12:29:41;;;;;;;12.33;7.77;;;19.80;46.20;;;;;;5078194;28;20697;-77
2022/03/29 12:32:11;;;;;;;9.17;6.90;;;19.70;44.80;;;;;;5077679;28;20265;-77
2022/03/29 12:34:46;;;;;;;9.43;7.20;;;19.80;45.20;;;;;;5077625;28;20207;-80
2022/03/29 12:37:15;;;;;;;10.30;7.50;;;19.80;44.80;;;;;;5081623;28;20210;-77
2022/03/29 12:39:45;;;;;;;12.57;8.27;;;19.70;44.00;;;;;;5086746;28;20214;-77
2022/03/29 12:42:19;;;;;;;13.20;8.00;;;19.40;45.10;;;;;;5097300;28;20207;-78
2022/03/29 12:44:56;;;;;;;11.77;7.80;;;19.40;45.20;;;;;;5096403;28;20214;-75
2022/03/29 12:47:26;;;;;;;12.87;7.97;;;19.30;45.80;;;;;;5092154;28;20227;-78
2022/03/29 12:49:57;;;;;;;15.87;8.67;;;19.40;46.10;;;;;;5077984;28;20203;-80
2022/03/29 12:52:25;;;;;;;16.57;9.00;;;19.50;45.50;;;;;;5084399;28;20211;-77
2022/03/29 12:54:58;;;;;;;12.70;8.57;;;19.40;46.70;;;;;;5075368;28;20618;-78
2022/03/29 12:57:38;;;;;;;15.53;8.17;;;19.20;46.00;;;;;;5074251;28;20196;-78
2022/03/29 13:00:09;;;;;;;14.80;8.13;;;19.30;45.20;;;;;;5064305;28;20231;-75
2022/03/29 13:03:07;;;;;;;28.47;8.60;;;19.10;45.10;;;;;;5051098;28;20200;-77
2022/03/29 13:06:03;;;;;;;19.97;9.07;;;19.10;46.20;;;;;;5054116;28;21112;-77
2022/03/29 13:08:31;;;;;;;18.33;8.53;;;19.30;44.70;;;;;;5053281;28;20933;-75
2022/03/29 13:11:16;;;;;;;15.20;8.30;;;19.30;46.00;;;;;;5052008;28;20844;-74
2022/03/29 13:14:03;;;;;;;15.90;8.00;;;19.30;45.30;;;;;;5033669;28;20285;-75
2022/03/29 13:16:33;;;;;;;10.43;7.47;;;19.20;45.40;;;;;;5045119;28;20208;-76
2022/03/29 13:19:03;;;;;;;22.70;8.13;;;19.20;45.10;;;;;;5053613;28;20204;-78
2022/03/29 13:21:34;;;;;;;9.83;7.53;;;19.30;45.50;;;;;;5053655;28;20204;-78
2022/03/29 13:24:12;;;;;;;12.67;7.53;;;19.30;45.20;;;;;;5053788;28;20196;-79
2022/03/29 13:26:44;;;;;;;12.83;8.47;;;19.50;45.80;;;;;;5053330;28;20212;-79
2022/03/29 13:29:15;;;;;;;16.00;9.00;;;19.50;44.20;;;;;;5052101;28;20220;-78
2022/03/29 13:31:44;;;;;;;14.83;8.10;;;19.80;45.30;;;;;;5054349;28;20211;-79
2022/03/29 13:34:14;;;;;;;15.93;9.57;;;19.80;44.40;;;;;;5053616;28;20619;-76
2022/03/29 13:36:45;;;;;;;16.20;9.80;;;19.60;44.10;;;;;;5054436;28;20204;-76
2022/03/29 13:39:15;;;;;;;13.97;10.63;;;19.70;45.80;;;;;;5052849;28;20728;-77
2022/03/29 13:42:05;;;;;;;16.87;11.43;;;19.70;47.20;;;;;;5056455;28;20644;-79
2022/03/29 13:44:37;;;;;;;17.10;10.60;;;19.80;47.30;;;;;;5054202;28;20670;-76
2022/03/29 13:47:07;;;;;;;15.50;9.43;;;19.60;46.20;;;;;;5051990;28;20236;-75
2022/03/29 13:49:35;;;;;;;21.53;9.23;;;19.40;45.40;;;;;;5052160;28;20240;-75
2022/03/29 13:52:05;;;;;;;14.60;8.63;;;19.10;46.60;;;;;;5034704;28;20263;-76
2022/03/29 13:54:33;;;;;;;19.07;8.70;;;19.10;45.00;;;;;;5058523;28;20208;-80
2022/03/29 13:57:05;;;;;;;20.57;7.43;;;19.20;45.60;;;;;;5056557;28;20295;-74
2022/03/29 13:59:35;;;;;;;13.70;6.90;;;19.10;44.80;;;;;;5055746;28;20212;-76
2022/03/29 14:02:03;;;;;;;17.53;7.10;;;19.00;43.80;;;;;;5054990;28;20208;-73
2022/03/29 14:04:37;;;;;;;11.10;6.97;;;18.90;43.70;;;;;;5055449;28;20216;-75
2022/03/29 14:07:05;;;;;;;18.93;6.87;;;19.10;44.70;;;;;;5055771;28;20275;-77
2022/03/29 14:09:34;;;;;;;10.13;6.77;;;19.10;45.40;;;;;;5054900;28;20210;-74
2022/03/29 14:12:03;;;;;;;13.33;6.57;;;19.00;42.70;;;;;;5055434;28;20258;-77
2022/03/29 14:14:31;;;;;;;11.40;6.43;;;19.00;43.60;;;;;;5055917;28;20236;-79
2022/03/29 14:17:00;;;;;;;9.67;6.40;;;19.00;43.60;;;;;;5055435;28;20211;-75
2022/03/29 14:19:29;;;;;;;12.17;7.33;;;19.10;44.50;;;;;;5054391;28;20615;-77
2022/03/29 14:21:58;;;;;;;13.83;7.00;;;19.10;44.90;;;;;;5055369;28;20239;-76
2022/03/29 14:24:27;;;;;;;16.50;7.50;;;19.00;44.80;;;;;;5054692;28;20227;-75
2022/03/29 14:26:56;;;;;;;14.70;7.57;;;18.80;44.90;;;;;;5054471;28;20208;-75
2022/03/29 14:29:24;;;;;;;12.67;6.57;;;18.60;44.90;;;;;;5053998;28;20247;-74
2022/03/29 14:32:13;;;;;;;16.30;7.20;;;18.50;46.60;;;;;;5054549;28;20207;-77
2022/03/29 14:34:42;;;;;;;17.63;6.73;;;18.40;46.10;;;;;;5055100;28;20243;-76
2022/03/29 14:37:10;;;;;;;13.47;6.97;;;18.30;47.20;;;;;;5053998;28;20220;-79
2022/03/29 14:39:38;;;;;;;19.73;7.23;;;18.10;45.50;;;;;;5054432;28;20231;-78
2022/03/29 14:42:09;;;;;;;19.40;7.07;;;17.80;46.10;;;;;;5054682;28;20686;-76
2022/03/29 14:44:37;;;;;;;16.40;7.47;;;17.80;46.50;;;;;;5053985;28;20299;-75
2022/03/29 14:47:06;;;;;;;17.63;8.00;;;17.70;47.30;;;;;;5056155;28;20311;-75
2022/03/29 14:49:36;;;;;;;15.60;7.87;;;17.70;47.70;;;;;;5056042;28;20220;-76
2022/03/29 14:52:05;;;;;;;17.63;8.70;;;17.70;48.60;;;;;;5057785;28;20212;-74
2022/03/29 14:54:36;;;;;;;17.40;8.93;;;17.50;49.10;;;;;;5075782;28;20271;-75
2022/03/29 14:57:05;;;;;;;18.77;9.13;;;17.40;50.60;;;;;;5075156;28;20195;-74
2022/03/29 14:59:33;;;;;;;12.97;8.77;;;17.30;50.00;;;;;;5074382;28;20257;-74
2022/03/29 15:02:02;;;;;;;16.20;9.20;;;17.20;50.00;;;;;;5065189;28;20200;-77
2022/03/29 15:04:31;;;;;;;16.53;8.73;;;17.30;50.50;;;;;;5054254;28;20208;-76
2022/03/29 15:07:00;;;;;;;15.97;8.00;;;17.20;51.50;;;;;;5055576;28;20196;-76
2022/03/29 15:09:31;;;;;;;15.73;7.90;;;17.10;50.80;;;;;;5053854;28;20258;-74
2022/03/29 15:12:00;;;;;;;15.27;8.20;;;17.10;51.50;;;;;;5055136;28;20216;-76
2022/03/29 15:14:28;;;;;;;15.37;7.10;;;17.10;51.70;;;;;;5055496;28;20262;-78
2022/03/29 15:16:59;;;;;;;18.73;6.20;;;17.10;51.20;;;;;;5054329;28;20212;-77
2022/03/29 15:19:27;;;;;;;18.83;6.73;;;17.10;49.50;;;;;;5054364;28;20197;-73
2022/03/29 15:21:55;;;;;;;17.87;6.67;;;17.10;51.00;;;;;;5052475;28;20262;-77
2022/03/29 15:24:25;;;;;;;23.80;6.80;;;17.20;49.50;;;;;;5054259;28;20295;-77
2022/03/29 15:26:53;;;;;;;23.90;6.80;;;17.10;49.80;;;;;;5055981;28;20266;-77
2022/03/29 15:29:22;;;;;;;17.40;7.27;;;17.20;50.50;;;;;;5059169;28;20361;-76
2022/03/29 15:31:51;;;;;;;18.53;6.83;;;17.20;50.00;;;;;;5055776;28;20234;-77
2022/03/29 15:34:32;;;;;;;21.70;6.23;;;17.10;51.00;;;;;;5054685;28;20258;-76
2022/03/29 15:37:03;;;;;;;20.23;6.90;;;17.10;49.90;;;;;;5053968;28;20621;-74
2022/03/29 15:39:33;;;;;;;22.80;6.93;;;17.20;50.10;;;;;;5053531;28;20228;-76
2022/03/29 15:42:02;;;;;;;22.27;7.03;;;17.30;51.10;;;;;;5052147;28;20228;-76
2022/03/29 15:44:30;;;;;;;21.30;6.80;;;17.30;50.60;;;;;;5048731;28;20293;-75
2022/03/29 15:46:58;;;;;;;20.27;7.40;;;17.40;50.90;;;;;;5043953;28;20267;-75
2022/03/29 15:49:29;;;;;;;23.00;7.20;;;17.50;51.10;;;;;;5034363;28;20243;-75
2022/03/29 15:51:58;;;;;;;22.67;7.80;;;17.40;50.60;;;;;;5034946;28;20247;-73
2022/03/29 15:54:26;;;;;;;15.50;7.03;;;17.30;50.90;;;;;;5037435;28;20236;-74
2022/03/29 15:56:55;;;;;;;16.43;6.47;;;17.10;50.40;;;;;;5036480;28;20236;-74
2022/03/29 15:59:23;;;;;;;17.43;6.17;;;17.10;50.60;;;;;;5035674;28;20263;-75
2022/03/29 16:01:52;;;;;;;24.83;6.70;;;17.20;50.00;;;;;;5033530;28;20213;-73
2022/03/29 16:04:21;;;;;;;23.33;6.20;;;17.10;50.90;;;;;;5033363;28;20698;-75
2022/03/29 16:06:49;;;;;;;18.57;6.40;;;17.00;51.10;;;;;;5033598;28;20635;-75
2022/03/29 16:09:18;;;;;;;16.43;5.63;;;17.00;50.00;;;;;;5032961;28;20233;-77
2022/03/29 16:11:48;;;;;;;19.50;6.03;;;16.90;50.40;;;;;;5033739;28;20227;-74
2022/03/29 16:14:21;;;;;;;22.90;7.53;;;16.80;52.50;;;;;;5033437;28;20190;-75
2022/03/29 16:16:50;;;;;;;16.63;6.03;;;16.70;50.60;;;;;;5073158;28;20192;-76
2022/03/29 16:19:18;;;;;;;24.10;6.77;;;16.60;50.90;;;;;;5072771;28;20661;-78
2022/03/29 16:21:47;;;;;;;18.67;6.80;;;16.50;52.50;;;;;;5073230;28;20230;-74
2022/03/29 16:24:15;;;;;;;17.73;6.23;;;16.40;51.10;;;;;;5072858;28;20680;-74
2022/03/29 16:26:43;;;;;;;20.07;6.40;;;16.30;51.70;;;;;;5073089;28;20231;-76
2022/03/29 16:29:11;;;;;;;17.47;6.40;;;16.20;51.70;;;;;;5073676;28;20231;-77
2022/03/29 16:31:42;;;;;;;18.80;6.57;;;16.10;51.90;;;;;;5074133;28;20208;-75
2022/03/29 16:34:11;;;;;;;24.57;6.43;;;16.00;51.60;;;;;;5074865;28;20216;-76
2022/03/29 16:36:40;;;;;;;25.27;6.47;;;15.90;52.30;;;;;;5074497;28;20215;-75
2022/03/29 16:39:10;;;;;;;20.03;6.20;;;15.80;52.20;;;;;;5073688;28;20211;-75
2022/03/29 16:41:43;;;;;;;19.17;6.23;;;15.80;52.50;;;;;;5076661;28;20211;-74
2022/03/29 16:44:11;;;;;;;25.07;6.57;;;15.70;54.00;;;;;;5073163;28;20238;-76
2022/03/29 16:46:42;;;;;;;22.60;6.40;;;15.70;53.30;;;;;;5073437;28;20237;-75
2022/03/29 16:49:14;;;;;;;19.20;6.63;;;15.60;54.20;;;;;;5072388;28;20231;-74
2022/03/29 16:51:42;;;;;;;21.60;6.90;;;15.60;53.60;;;;;;5073061;28;20572;-74
2022/03/29 16:54:10;;;;;;;22.77;6.90;;;15.50;53.30;;;;;;5072845;28;20335;-74
2022/03/29 16:56:38;;;;;;;22.47;6.73;;;15.40;54.30;;;;;;5073077;28;20251;-75
2022/03/29 16:59:07;;;;;;;23.40;6.20;;;15.40;54.00;;;;;;5072760;28;20783;-75
2022/03/29 17:01:37;;;;;;;19.23;6.63;;;15.30;54.50;;;;;;5073191;28;20219;-75
2022/03/29 17:04:07;;;;;;;23.07;6.70;;;15.30;54.30;;;;;;5073016;28;20250;-75
2022/03/29 17:06:38;;;;;;;17.10;6.43;;;15.10;55.00;;;;;;5072772;28;20215;-75